LGTG

Details ICAO LGTG
Name TANAGRA
Region Greece
Timezone Europe/Athens (UTC+2.0)
Plans Departing 3
Arriving 6
Stats Elevation 485 ft / 148 m (AMSL)
Location 38.339846° 23.564957°
Runways 1
Magnetic Variation 4.476° E
Sunrise 2017-12-14 05:36:13 UTC / 2017-12-14 07:36:13 Local
Sunset 2017-12-14 15:07:22 UTC / 2017-12-14 17:07:22 Local
Advertisement - Login to hide

Runways

ID Width Length Bearing (true) Bearing (mag) Surface Threshold Offset Overrun Length
10 148 ft / 45 m 9,791 ft / 2,984 m 104.86° 100.38° Asphalt 492 ft / 150 m 775 ft / 236 m
28 148 ft / 45 m 9,791 ft / 2,984 m 284.88° 280.40° Asphalt 0 ft / 0 m 670 ft / 204 m

Map

Weather


0- 5 10 15 20 25 30 35+ Temperature / ° C

Clouds and Precipitation
Forecast for 2017-12-14 00:00 UTC. Updated 2 hours ago

Ground ~20,000 ft ~40,000 ft Winds

METAR

LGTG 140050Z 00000KT CAVOK 11/03 Q1017 RMK BKN180 BLU

TAF

Not found

Frequencies

Tower 122.10 MHz TWR
Approach 120.25 MHz APP
Tower 120.25 MHz TWR
Approach 122.10 MHz APP
Warning: Do not use this data for real-world aviation or navigation. No guarantee of current accuracy is given.